createdAt,value
2018-07-11T00:00:05.324Z,2.03
2018-07-11T00:02:34.699Z,2.30
2018-07-11T00:05:03.820Z,2.27
2018-07-11T00:07:32.842Z,2.10
2018-07-11T00:10:01.530Z,2.67
2018-07-11T00:12:30.686Z,2.03
2018-07-11T00:14:59.332Z,2.00
2018-07-11T00:17:28.145Z,1.73
2018-07-11T00:19:57.595Z,1.80
2018-07-11T00:22:27.235Z,1.83
2018-07-11T00:24:56.761Z,2.20
2018-07-11T00:27:26.975Z,2.00
2018-07-11T00:30:00.110Z,2.13
2018-07-11T00:32:29.115Z,2.20
2018-07-11T00:34:57.793Z,1.60
2018-07-11T00:37:27.523Z,2.43
2018-07-11T00:39:57.600Z,2.57
2018-07-11T00:42:26.691Z,1.97
2018-07-11T00:44:55.926Z,2.03
2018-07-11T00:47:24.644Z,1.90
2018-07-11T00:49:53.572Z,2.63
2018-07-11T00:52:22.283Z,2.50
2018-07-11T00:54:52.174Z,2.20
2018-07-11T00:57:21.372Z,2.30
2018-07-11T00:59:50.694Z,2.40
2018-07-11T01:02:20.153Z,2.63
2018-07-11T01:04:49.190Z,2.20
2018-07-11T01:07:20.270Z,2.17
2018-07-11T01:09:50.580Z,2.30
2018-07-11T01:12:20.442Z,2.33
2018-07-11T01:14:49.839Z,2.13
2018-07-11T01:17:24.059Z,2.30
2018-07-11T01:19:52.943Z,2.70
2018-07-11T01:22:21.744Z,2.07
2018-07-11T01:24:51.808Z,2.30
2018-07-11T01:27:21.111Z,2.37
2018-07-11T01:29:50.386Z,2.20
2018-07-11T01:32:20.017Z,2.10
2018-07-11T01:34:49.049Z,1.93
2018-07-11T01:37:18.435Z,2.40
2018-07-11T01:39:47.810Z,2.23
2018-07-11T01:42:17.607Z,2.30
2018-07-11T01:44:46.510Z,2.77
2018-07-11T01:47:15.175Z,2.40
2018-07-11T01:49:44.182Z,2.10
2018-07-11T01:52:24.547Z,2.10
2018-07-11T01:54:53.801Z,3.00
2018-07-11T01:57:23.117Z,2.27
2018-07-11T01:59:52.537Z,2.23
2018-07-11T02:02:22.069Z,2.20
2018-07-11T02:04:50.650Z,2.40
2018-07-11T02:07:19.811Z,2.50
2018-07-11T02:09:49.127Z,2.30
2018-07-11T02:12:17.931Z,2.83
2018-07-11T02:14:55.247Z,2.50
2018-07-11T02:17:24.179Z,2.10
2018-07-11T02:19:53.393Z,2.17
2018-07-11T02:22:22.486Z,2.17
2018-07-11T02:24:51.083Z,2.30
2018-07-11T02:27:20.006Z,1.90
2018-07-11T02:29:48.977Z,3.30
2018-07-11T02:32:18.174Z,2.20
2018-07-11T02:34:47.004Z,2.40
2018-07-11T02:37:15.991Z,2.10
2018-07-11T02:39:45.173Z,2.03
2018-07-11T02:42:14.465Z,3.20
2018-07-11T02:44:43.729Z,2.70
2018-07-11T02:47:18.221Z,2.20
2018-07-11T02:49:47.674Z,2.20
2018-07-11T02:52:17.161Z,2.37
2018-07-11T02:54:45.861Z,2.07
2018-07-11T02:57:16.515Z,1.97
2018-07-11T03:05:31.906Z,2.00
2018-07-11T03:08:00.845Z,1.90
2018-07-11T03:10:29.919Z,2.40
2018-07-11T03:12:58.779Z,2.27
2018-07-11T03:15:28.292Z,2.00
2018-07-11T03:17:57.602Z,2.13
2018-07-11T03:20:26.254Z,2.30
2018-07-11T03:22:55.075Z,1.93
2018-07-11T03:25:25.191Z,2.30
2018-07-11T03:27:54.476Z,2.07
2018-07-11T03:30:23.867Z,2.57
2018-07-11T03:32:53.297Z,2.70
2018-07-11T03:35:22.890Z,2.00
2018-07-11T03:37:51.832Z,2.03
2018-07-11T03:40:21.007Z,2.10
2018-07-11T03:42:49.662Z,2.33
2018-07-11T03:45:18.786Z,1.90
2018-07-11T03:47:48.334Z,2.33
2018-07-11T03:50:17.373Z,2.23
2018-07-11T03:52:46.524Z,2.60
2018-07-11T03:55:15.782Z,2.30
2018-07-11T03:57:45.053Z,1.80
2018-07-11T04:00:14.336Z,2.33
2018-07-11T04:02:42.905Z,2.30
2018-07-11T04:05:11.675Z,2.00
2018-07-11T04:07:40.813Z,1.90
2018-07-11T04:10:09.783Z,3.00
2018-07-11T04:12:39.022Z,2.20
2018-07-11T04:15:07.762Z,2.00
2018-07-11T04:17:36.996Z,2.17
2018-07-11T04:20:06.559Z,2.97
2018-07-11T04:22:35.740Z,1.83
2018-07-11T04:25:05.353Z,1.97
2018-07-11T04:27:34.518Z,2.20
2018-07-11T04:30:03.614Z,2.00
2018-07-11T04:32:34.896Z,1.80
2018-07-11T04:35:04.493Z,1.90
2018-07-11T04:37:33.452Z,2.00
2018-07-11T04:40:02.169Z,1.90
2018-07-11T04:42:31.481Z,2.13
2018-07-11T04:45:00.323Z,1.80
2018-07-11T04:47:29.423Z,1.70
2018-07-11T04:49:58.388Z,1.80
2018-07-11T04:55:00.750Z,2.00
2018-07-11T04:57:29.775Z,1.80
2018-07-11T04:59:58.566Z,1.80
2018-07-11T05:02:28.435Z,1.80
2018-07-11T05:04:57.620Z,2.03
2018-07-11T05:07:26.311Z,1.90
2018-07-11T05:09:56.825Z,1.90
2018-07-11T05:12:25.807Z,1.80
2018-07-11T05:14:55.314Z,2.07
2018-07-11T05:17:24.566Z,2.00
2018-07-11T05:19:53.520Z,1.60
2018-07-11T05:22:22.844Z,2.13
2018-07-11T05:24:51.928Z,1.60
2018-07-11T05:27:21.126Z,1.37
2018-07-11T05:29:50.218Z,1.50
2018-07-11T05:32:23.564Z,1.80
2018-07-11T05:34:52.409Z,1.33
2018-07-11T05:37:22.319Z,1.17
2018-07-11T05:39:51.880Z,1.60
2018-07-11T05:42:21.046Z,1.50
2018-07-11T05:44:49.788Z,1.33
2018-07-11T05:47:19.107Z,1.07
2018-07-11T05:49:48.831Z,1.07
2018-07-11T05:52:18.550Z,1.43
2018-07-11T05:54:47.842Z,1.50
2018-07-11T05:57:16.778Z,1.20
2018-07-11T05:59:46.239Z,1.20
2018-07-11T06:02:15.098Z,1.20
2018-07-11T06:04:43.832Z,1.27
2018-07-11T06:07:15.800Z,1.30
2018-07-11T06:09:44.622Z,1.07
2018-07-11T06:12:13.762Z,1.10
2018-07-11T06:14:44.805Z,1.30
2018-07-11T06:17:14.261Z,1.00
2018-07-11T06:19:43.504Z,1.20
2018-07-11T06:22:13.523Z,1.03
2018-07-11T06:24:42.336Z,0.93
2018-07-11T06:27:11.215Z,1.20
2018-07-11T06:29:41.005Z,1.10
2018-07-11T06:32:10.625Z,1.80
2018-07-11T06:34:39.882Z,1.57
2018-07-11T06:37:08.582Z,1.10
2018-07-11T06:39:37.832Z,2.50
2018-07-11T06:42:07.228Z,2.20
2018-07-11T06:44:36.701Z,1.30
2018-07-11T06:47:11.113Z,1.30
2018-07-11T06:49:40.823Z,2.00
2018-07-11T06:52:10.645Z,1.40
2018-07-11T06:54:39.067Z,2.07
2018-07-11T06:57:08.570Z,1.17
2018-07-11T06:59:37.651Z,1.00
2018-07-11T07:02:07.026Z,0.90
2018-07-11T07:04:37.997Z,1.00
2018-07-11T07:07:07.346Z,1.10
2018-07-11T07:09:36.909Z,0.97
2018-07-11T07:12:06.516Z,1.00
2018-07-11T07:14:35.712Z,1.77
2018-07-11T07:17:05.053Z,1.53
2018-07-11T07:19:36.370Z,1.00
2018-07-11T07:22:04.934Z,1.37
2018-07-11T07:24:34.275Z,1.13
2018-07-11T07:27:03.325Z,1.10
2018-07-11T07:29:32.069Z,1.17
2018-07-11T07:32:01.089Z,1.17
2018-07-11T07:34:30.283Z,0.83
2018-07-11T07:36:59.386Z,1.07
2018-07-11T07:39:28.905Z,1.87
2018-07-11T07:41:58.298Z,2.73
2018-07-11T07:44:27.051Z,1.30
2018-07-11T07:47:00.638Z,1.90
2018-07-11T07:49:31.098Z,1.50
2018-07-11T07:52:00.847Z,1.40
2018-07-11T07:54:31.231Z,1.20
2018-07-11T07:57:00.355Z,2.37
2018-07-11T07:59:29.201Z,1.33
2018-07-11T08:01:58.259Z,1.47
2018-07-11T08:04:27.831Z,2.20
2018-07-11T08:06:56.673Z,1.40
2018-07-11T08:09:26.568Z,1.27
2018-07-11T08:11:55.335Z,1.30
2018-07-11T08:14:24.701Z,1.30
2018-07-11T08:16:53.746Z,2.40
2018-07-11T08:19:22.617Z,1.30
2018-07-11T08:21:52.095Z,1.30
2018-07-11T08:24:32.490Z,1.33
2018-07-11T08:27:46.942Z,1.20
2018-07-11T08:30:36.051Z,1.50
2018-07-11T08:34:16.032Z,1.93
2018-07-11T08:38:07.309Z,2.10
2018-07-11T08:40:47.203Z,2.40
2018-07-11T08:43:31.534Z,2.20
2018-07-11T08:46:13.270Z,1.20
2018-07-11T08:48:55.637Z,1.20
2018-07-11T08:51:36.288Z,1.20
2018-07-11T08:54:13.432Z,1.33
2018-07-11T08:56:51.769Z,1.60
2018-07-11T08:59:33.027Z,1.67
2018-07-11T09:02:11.889Z,1.50
2018-07-11T09:05:51.980Z,2.13
2018-07-11T09:08:35.089Z,1.27
2018-07-11T09:13:25.072Z,1.47
2018-07-11T09:18:26.166Z,2.00
2018-07-11T09:23:14.938Z,2.53
2018-07-11T09:25:44.739Z,1.50
2018-07-11T09:28:13.980Z,2.30
2018-07-11T09:32:07.912Z,1.50
2018-07-11T09:34:37.600Z,1.47
2018-07-11T09:37:08.103Z,1.33
2018-07-11T09:39:37.677Z,1.67
2018-07-11T09:42:07.236Z,1.00
2018-07-11T09:44:36.587Z,1.20
2018-07-11T09:47:10.896Z,1.57
2018-07-11T09:49:39.649Z,1.37
2018-07-11T09:52:08.185Z,3.13
2018-07-11T10:14:22.441Z,2.03
2018-07-11T10:16:51.895Z,1.10
2018-07-11T10:19:21.325Z,3.00
2018-07-11T10:21:50.139Z,1.87
2018-07-11T10:24:18.923Z,1.50
2018-07-11T10:26:48.423Z,1.50
2018-07-11T10:29:20.170Z,1.20
2018-07-11T10:31:49.737Z,1.63
2018-07-11T10:34:19.032Z,1.30
2018-07-11T10:36:48.195Z,1.23
2018-07-11T10:39:17.792Z,1.53
2018-07-11T10:41:47.185Z,1.40
2018-07-11T10:44:16.571Z,1.37
2018-07-11T10:46:45.816Z,1.43
2018-07-11T10:49:14.355Z,1.43
2018-07-11T10:51:43.173Z,1.10
2018-07-11T10:54:12.042Z,1.50
2018-07-11T10:56:41.336Z,1.40
2018-07-11T10:59:11.351Z,1.37
2018-07-11T11:01:40.551Z,7.22
2018-07-11T11:04:10.182Z,2.30
2018-07-11T11:06:39.052Z,1.50
2018-07-11T11:09:08.445Z,3.67
2018-07-11T11:11:37.876Z,3.67
2018-07-11T11:14:06.843Z,2.87
2018-07-11T11:19:02.757Z,1.50
2018-07-11T11:21:33.093Z,1.57
2018-07-11T11:24:02.062Z,1.57
2018-07-11T11:26:31.355Z,1.70
2018-07-11T11:29:01.761Z,1.53
2018-07-11T11:31:30.987Z,1.37
2018-07-11T11:34:00.367Z,1.63
2018-07-11T11:36:29.415Z,2.77
2018-07-11T11:38:58.846Z,1.67
2018-07-11T11:41:28.417Z,1.53
2018-07-11T11:43:57.682Z,2.83
2018-07-11T11:46:26.852Z,1.57
2018-07-11T11:48:56.301Z,1.30
2018-07-11T11:51:26.272Z,1.83
2018-07-11T11:53:56.570Z,1.30
2018-07-11T11:56:25.578Z,1.13
2018-07-11T11:58:56.323Z,1.67
2018-07-11T12:01:26.064Z,0.90
2018-07-11T12:03:55.993Z,1.93
2018-07-11T12:06:27.857Z,1.10
2018-07-11T12:08:57.818Z,1.30
2018-07-11T12:11:27.277Z,0.93
2018-07-11T12:14:01.768Z,1.90
2018-07-11T12:16:30.890Z,1.00
2018-07-11T12:19:00.502Z,0.73
2018-07-11T12:21:30.846Z,0.87
2018-07-11T12:24:00.480Z,0.90
2018-07-11T12:26:29.917Z,1.00
2018-07-11T12:28:59.564Z,0.80
2018-07-11T12:31:28.690Z,1.87
2018-07-11T12:33:57.954Z,0.90
2018-07-11T12:36:27.317Z,1.83
2018-07-11T12:38:56.778Z,0.73
2018-07-11T12:41:25.913Z,0.80
2018-07-11T12:43:55.111Z,0.80
2018-07-11T12:46:23.916Z,1.10
2018-07-11T12:48:58.110Z,0.87
2018-07-11T12:51:27.193Z,0.80
2018-07-11T12:53:56.759Z,0.83
2018-07-11T12:56:27.337Z,0.90
2018-07-11T12:58:57.627Z,0.87
2018-07-11T13:01:27.834Z,0.73
2018-07-11T13:03:58.508Z,1.00
2018-07-11T13:06:29.195Z,2.17
2018-07-11T13:08:58.716Z,1.53
2018-07-11T13:11:28.195Z,1.30
2018-07-11T13:13:57.261Z,1.60
2018-07-11T13:16:26.769Z,0.80
2018-07-11T13:18:57.112Z,0.80
2018-07-11T13:21:26.567Z,0.87
2018-07-11T13:23:56.000Z,0.90
2018-07-11T13:26:25.689Z,0.60
2018-07-11T13:28:54.952Z,0.80
2018-07-11T13:31:24.455Z,0.80
2018-07-11T13:33:53.396Z,0.80
2018-07-11T13:36:22.691Z,1.03
2018-07-11T13:40:16.104Z,1.10
2018-07-11T13:42:45.445Z,3.60
2018-07-11T13:45:14.761Z,0.90
2018-07-11T13:47:43.917Z,0.80
2018-07-11T13:50:13.530Z,0.73
2018-07-11T13:52:42.409Z,0.80
2018-07-11T13:55:11.737Z,0.60
2018-07-11T13:57:42.260Z,0.90
2018-07-11T14:00:11.168Z,0.83
2018-07-11T14:02:41.328Z,3.07
2018-07-11T14:05:10.497Z,1.40
2018-07-11T14:07:39.317Z,0.93
2018-07-11T14:10:08.505Z,0.70
2018-07-11T14:12:37.688Z,0.70
2018-07-11T14:17:46.318Z,0.80
2018-07-11T14:20:15.379Z,0.70
2018-07-11T14:22:47.548Z,0.80
2018-07-11T14:25:18.407Z,0.77
2018-07-11T14:27:50.720Z,0.80
2018-07-11T14:30:25.183Z,0.80
2018-07-11T14:33:00.051Z,0.90
2018-07-11T14:35:29.615Z,0.80
2018-07-11T14:37:59.205Z,1.57
2018-07-11T14:40:28.828Z,0.73
2018-07-11T14:42:58.340Z,0.70
2018-07-11T14:45:30.105Z,2.03
2018-07-11T14:48:04.569Z,0.90
2018-07-11T14:50:33.926Z,0.70
2018-07-11T14:53:03.717Z,1.20
2018-07-11T14:55:32.584Z,0.83
2018-07-11T14:58:02.774Z,2.10
2018-07-11T15:01:57.122Z,1.10
2018-07-11T15:04:26.384Z,0.90
2018-07-11T15:06:56.020Z,0.80
2018-07-11T15:09:24.678Z,0.70
2018-07-11T15:11:53.748Z,1.37
2018-07-11T15:14:23.009Z,1.67
2018-07-11T15:16:52.450Z,0.60
2018-07-11T15:19:24.065Z,2.00
2018-07-11T15:21:53.266Z,0.60
2018-07-11T15:24:23.058Z,0.70
2018-07-11T15:26:52.878Z,0.80
2018-07-11T15:29:21.615Z,0.80
2018-07-11T15:31:50.937Z,0.70
2018-07-11T15:34:20.196Z,0.80
2018-07-11T15:36:49.534Z,0.70
2018-07-11T15:39:18.854Z,1.97
2018-07-11T15:41:48.270Z,0.70
2018-07-11T15:44:17.554Z,0.70
2018-07-11T15:46:46.226Z,0.60
2018-07-11T15:49:15.065Z,0.70
2018-07-11T15:51:43.699Z,0.90
2018-07-11T15:56:44.961Z,0.80
2018-07-11T15:59:16.743Z,0.70
2018-07-11T16:01:50.022Z,0.77
2018-07-11T16:04:25.955Z,0.60
2018-07-11T16:06:58.821Z,0.67
2018-07-11T16:09:28.206Z,0.70
2018-07-11T16:11:56.750Z,0.70
2018-07-11T16:14:26.003Z,1.10
2018-07-11T16:16:55.180Z,0.73
2018-07-11T16:19:24.657Z,2.00
2018-07-11T16:21:55.818Z,0.70
2018-07-11T16:24:25.167Z,0.80
2018-07-11T16:26:54.643Z,0.80
2018-07-11T16:29:24.361Z,0.80
2018-07-11T16:31:53.722Z,0.70
2018-07-11T16:34:22.693Z,0.90
2018-07-11T16:36:51.468Z,0.93
2018-07-11T16:39:21.024Z,0.80
2018-07-11T16:41:50.259Z,1.00
2018-07-11T16:44:19.715Z,0.90
2018-07-11T16:46:49.827Z,1.10
2018-07-11T16:49:18.570Z,1.00
2018-07-11T16:51:49.838Z,0.80
2018-07-11T16:54:19.946Z,1.00
2018-07-11T16:56:48.832Z,0.90
2018-07-11T16:59:20.556Z,1.07
2018-07-11T17:01:54.247Z,1.07
2018-07-11T17:04:25.423Z,0.97
2018-07-11T17:06:55.570Z,1.20
2018-07-11T17:09:25.703Z,0.97
2018-07-11T17:11:55.881Z,0.90
2018-07-11T17:14:24.557Z,1.00
2018-07-11T17:17:00.521Z,1.33
2018-07-11T17:19:39.710Z,1.10
2018-07-11T17:22:09.901Z,1.00
2018-07-11T17:24:48.310Z,1.07
2018-07-11T17:27:22.987Z,0.93
2018-07-11T17:29:53.365Z,0.90
2018-07-11T17:32:22.950Z,0.90
2018-07-11T17:34:52.559Z,1.00
2018-07-11T17:39:53.618Z,1.20
2018-07-11T17:42:24.836Z,1.00
2018-07-11T17:45:05.332Z,1.07
2018-07-11T17:47:38.956Z,1.00
2018-07-11T17:50:08.481Z,1.20
2018-07-11T17:52:49.630Z,1.20
2018-07-11T17:55:42.716Z,1.30
2018-07-11T17:58:11.713Z,1.47
2018-07-11T18:00:50.676Z,2.13
2018-07-11T18:03:42.073Z,1.40
2018-07-11T18:06:24.523Z,1.37
2018-07-11T18:09:05.598Z,1.50
2018-07-11T18:12:18.107Z,1.20
2018-07-11T18:14:56.157Z,2.17
2018-07-11T18:18:34.027Z,1.73
2018-07-11T18:21:09.842Z,3.13
2018-07-11T18:24:00.352Z,3.20
2018-07-11T18:26:54.767Z,1.80
2018-07-11T18:30:39.116Z,4.50
2018-07-11T18:33:16.329Z,2.40
2018-07-11T18:35:57.465Z,1.70
2018-07-11T18:38:36.168Z,2.70
2018-07-11T18:41:06.555Z,1.60
2018-07-11T18:44:55.231Z,1.90
2018-07-11T18:47:33.585Z,3.00
2018-07-11T18:50:19.314Z,1.60
2018-07-11T18:53:11.364Z,2.90
2018-07-11T18:55:54.474Z,2.83
2018-07-11T18:58:35.380Z,2.27
2018-07-11T19:01:16.941Z,1.60
2018-07-11T19:04:26.830Z,1.10
2018-07-11T19:07:11.347Z,2.27
2018-07-11T19:09:58.391Z,1.50
2018-07-11T19:12:30.476Z,2.27
2018-07-11T19:15:06.599Z,1.70
2018-07-11T19:17:47.079Z,1.77
2018-07-11T19:21:24.302Z,1.93
2018-07-11T19:24:06.283Z,1.60
2018-07-11T19:26:46.570Z,2.00
2018-07-11T19:29:25.821Z,2.00
2018-07-11T19:32:09.453Z,1.47
2018-07-11T19:35:02.126Z,1.70
2018-07-11T19:38:44.258Z,1.90
2018-07-11T19:41:20.014Z,2.13
2018-07-11T19:43:58.055Z,2.00
2018-07-11T19:46:42.179Z,2.10
2018-07-11T19:49:30.993Z,1.90
2018-07-11T19:53:08.284Z,2.93
2018-07-11T19:55:52.637Z,1.80
2018-07-11T19:58:21.930Z,1.80
2018-07-11T20:00:51.843Z,1.73
2018-07-11T20:03:21.064Z,1.77
2018-07-11T20:05:53.341Z,2.13
2018-07-11T20:08:18.978Z,1.90
2018-07-11T20:10:49.702Z,1.80
2018-07-11T20:13:18.463Z,1.83
2018-07-11T20:15:47.994Z,1.80
2018-07-11T20:18:18.195Z,2.23
2018-07-11T20:20:47.470Z,1.97
2018-07-11T20:23:16.833Z,1.77
2018-07-11T20:25:46.337Z,1.83
2018-07-11T20:28:15.579Z,3.07
2018-07-11T20:30:44.643Z,3.07
2018-07-11T20:33:14.262Z,1.90
2018-07-11T20:35:43.704Z,2.83
2018-07-11T20:38:12.543Z,1.93
2018-07-11T20:40:41.648Z,2.93
2018-07-11T20:43:10.822Z,2.33
2018-07-11T20:45:39.879Z,2.33
2018-07-11T20:48:09.356Z,1.90
2018-07-11T20:50:38.409Z,2.20
2018-07-11T20:53:07.761Z,1.60
2018-07-11T20:55:36.809Z,2.13
2018-07-11T20:59:15.682Z,2.00
2018-07-11T21:01:52.574Z,1.73
2018-07-11T21:06:04.062Z,2.20
2018-07-11T21:10:57.916Z,2.00
2018-07-11T21:15:58.408Z,2.20
2018-07-11T21:19:04.432Z,2.20
2018-07-11T21:21:35.088Z,2.60
2018-07-11T21:24:05.067Z,2.70
2018-07-11T21:26:34.436Z,2.70
2018-07-11T21:29:04.248Z,2.60
2018-07-11T21:31:33.070Z,2.30
2018-07-11T21:34:02.211Z,2.70
2018-07-11T21:36:31.089Z,2.50
2018-07-11T21:39:00.430Z,1.77
2018-07-11T21:41:30.003Z,2.00
2018-07-11T21:43:58.994Z,1.77
2018-07-11T21:46:28.179Z,2.03
2018-07-11T21:48:57.168Z,1.60
2018-07-11T21:51:26.164Z,1.83
2018-07-11T21:53:55.383Z,1.50
2018-07-11T21:56:24.087Z,1.20
2018-07-11T21:58:52.932Z,1.30
2018-07-11T22:01:22.226Z,1.10
2018-07-11T22:03:50.983Z,1.83
2018-07-11T22:06:20.118Z,1.10
2018-07-11T22:08:49.345Z,1.00
2018-07-11T22:11:18.398Z,1.20
2018-07-11T22:13:48.003Z,0.80
2018-07-11T22:16:17.318Z,0.80
2018-07-11T22:18:46.702Z,0.90
2018-07-11T22:21:18.194Z,0.93
2018-07-11T22:23:45.758Z,0.80
2018-07-11T22:26:13.909Z,0.70
2018-07-11T22:28:41.272Z,0.77
2018-07-11T22:31:09.026Z,0.80
2018-07-11T22:33:36.626Z,0.80
2018-07-11T22:36:04.666Z,0.67
2018-07-11T22:38:32.418Z,0.80
2018-07-11T22:41:00.217Z,0.80
2018-07-11T22:43:28.295Z,0.70
2018-07-11T22:45:55.859Z,0.77
2018-07-11T22:48:23.880Z,0.63
2018-07-11T22:50:51.953Z,0.73
2018-07-11T22:53:19.812Z,0.63
2018-07-11T22:55:47.928Z,0.70
2018-07-11T22:58:15.280Z,0.60
2018-07-11T23:00:43.293Z,0.60
2018-07-11T23:03:11.283Z,0.50
2018-07-11T23:05:42.265Z,0.70
2018-07-11T23:08:10.033Z,0.60
2018-07-11T23:10:37.578Z,0.70
2018-07-11T23:13:05.480Z,0.67
2018-07-11T23:15:33.593Z,0.60
2018-07-11T23:18:01.495Z,0.60
2018-07-11T23:20:29.219Z,0.60
2018-07-11T23:22:56.669Z,0.50
2018-07-11T23:25:24.658Z,0.80
2018-07-11T23:27:52.246Z,0.70
2018-07-11T23:30:20.128Z,0.70
2018-07-11T23:32:47.771Z,0.50
2018-07-11T23:35:15.089Z,0.70
2018-07-11T23:37:43.369Z,0.80
2018-07-11T23:40:11.165Z,0.50
2018-07-11T23:42:38.762Z,0.70
2018-07-11T23:45:06.869Z,0.60
2018-07-11T23:47:34.813Z,0.60
2018-07-11T23:50:02.451Z,0.70
2018-07-11T23:52:30.293Z,0.70
2018-07-11T23:54:58.538Z,0.60
2018-07-11T23:57:27.264Z,0.60
2018-07-11T23:59:54.836Z,0.50
